sensor_id;sensor_type;location;lat;lon;timestamp;temperature;humidity
17687;DHT22;8962;52.538;13.266;2022-07-01T00:02:19;22.20;99.90
17687;DHT22;8962;52.538;13.266;2022-07-01T00:04:46;22.20;99.90
17687;DHT22;8962;52.538;13.266;2022-07-01T00:07:32;22.20;99.90
17687;DHT22;8962;52.538;13.266;2022-07-01T00:10:02;22.20;99.90
17687;DHT22;8962;52.538;13.266;2022-07-01T00:12:30;22.20;99.90
17687;DHT22;8962;52.538;13.266;2022-07-01T00:14:58;22.30;99.90
17687;DHT22;8962;52.538;13.266;2022-07-01T00:17:26;22.30;99.90
17687;DHT22;8962;52.538;13.266;2022-07-01T00:19:53;22.30;99.90
17687;DHT22;8962;52.538;13.266;2022-07-01T00:22:21;22.30;99.90
17687;DHT22;8962;52.538;13.266;2022-07-01T00:24:49;22.30;99.90
17687;DHT22;8962;52.538;13.266;2022-07-01T00:27:18;22.30;99.90
17687;DHT22;8962;52.538;13.266;2022-07-01T00:29:46;22.30;99.90
17687;DHT22;8962;52.538;13.266;2022-07-01T00:32:13;22.30;99.90
17687;DHT22;8962;52.538;13.266;2022-07-01T00:34:41;22.30;99.90
17687;DHT22;8962;52.538;13.266;2022-07-01T00:37:10;22.20;99.90
17687;DHT22;8962;52.538;13.266;2022-07-01T00:39:38;22.20;99.90
17687;DHT22;8962;52.538;13.266;2022-07-01T00:42:05;22.20;99.90
17687;DHT22;8962;52.538;13.266;2022-07-01T00:44:40;22.20;99.90
17687;DHT22;8962;52.538;13.266;2022-07-01T00:47:12;22.20;99.90
17687;DHT22;8962;52.538;13.266;2022-07-01T00:49:39;22.10;99.90
17687;DHT22;8962;52.538;13.266;2022-07-01T00:52:09;22.10;99.90
17687;DHT22;8962;52.538;13.266;2022-07-01T00:54:37;22.00;99.90
17687;DHT22;8962;52.538;13.266;2022-07-01T00:57:07;22.00;99.90
17687;DHT22;8962;52.538;13.266;2022-07-01T00:59:36;22.00;99.90
17687;DHT22;8962;52.538;13.266;2022-07-01T01:02:07;22.00;99.90
17687;DHT22;8962;52.538;13.266;2022-07-01T01:04:36;22.00;99.90
17687;DHT22;8962;52.538;13.266;2022-07-01T01:07:04;22.00;99.90
17687;DHT22;8962;52.538;13.266;2022-07-01T01:09:31;22.00;99.90
17687;DHT22;8962;52.538;13.266;2022-07-01T01:12:00;22.00;99.90
17687;DHT22;8962;52.538;13.266;2022-07-01T01:14:44;22.10;99.90
17687;DHT22;8962;52.538;13.266;2022-07-01T01:17:14;22.00;99.90
17687;DHT22;8962;52.538;13.266;2022-07-01T01:19:42;22.00;99.90
17687;DHT22;8962;52.538;13.266;2022-07-01T01:22:13;22.10;99.90
17687;DHT22;8962;52.538;13.266;2022-07-01T01:24:42;22.10;99.90
17687;DHT22;8962;52.538;13.266;2022-07-01T01:27:11;22.10;99.90
17687;DHT22;8962;52.538;13.266;2022-07-01T01:29:40;22.10;99.90
17687;DHT22;8962;52.538;13.266;2022-07-01T01:32:10;22.10;99.90
17687;DHT22;8962;52.538;13.266;2022-07-01T01:34:38;22.10;99.90
17687;DHT22;8962;52.538;13.266;2022-07-01T01:37:08;22.10;99.90
17687;DHT22;8962;52.538;13.266;2022-07-01T01:39:38;22.00;99.90
17687;DHT22;8962;52.538;13.266;2022-07-01T01:42:06;21.90;99.90
17687;DHT22;8962;52.538;13.266;2022-07-01T01:44:34;21.90;99.90
17687;DHT22;8962;52.538;13.266;2022-07-01T01:47:01;21.90;99.90
17687;DHT22;8962;52.538;13.266;2022-07-01T01:49:29;21.80;99.90
17687;DHT22;8962;52.538;13.266;2022-07-01T01:51:58;21.80;99.90
17687;DHT22;8962;52.538;13.266;2022-07-01T01:54:26;21.80;99.90
17687;DHT22;8962;52.538;13.266;2022-07-01T01:56:55;21.70;99.90
17687;DHT22;8962;52.538;13.266;2022-07-01T01:59:23;21.70;99.90
17687;DHT22;8962;52.538;13.266;2022-07-01T02:01:50;21.70;99.90
17687;DHT22;8962;52.538;13.266;2022-07-01T02:04:17;21.60;99.90
17687;DHT22;8962;52.538;13.266;2022-07-01T02:06:44;21.60;99.90
17687;DHT22;8962;52.538;13.266;2022-07-01T02:09:11;21.60;99.90
17687;DHT22;8962;52.538;13.266;2022-07-01T02:11:40;21.60;99.90
17687;DHT22;8962;52.538;13.266;2022-07-01T02:14:10;21.60;99.90
17687;DHT22;8962;52.538;13.266;2022-07-01T02:16:39;21.60;99.90
17687;DHT22;8962;52.538;13.266;2022-07-01T02:19:06;21.60;99.90
17687;DHT22;8962;52.538;13.266;2022-07-01T02:21:35;21.60;99.90
17687;DHT22;8962;52.538;13.266;2022-07-01T02:24:02;21.60;99.90
17687;DHT22;8962;52.538;13.266;2022-07-01T02:26:29;21.60;99.90
17687;DHT22;8962;52.538;13.266;2022-07-01T02:28:58;21.60;99.90
17687;DHT22;8962;52.538;13.266;2022-07-01T02:31:32;21.60;99.90
17687;DHT22;8962;52.538;13.266;2022-07-01T02:33:59;21.60;99.90
17687;DHT22;8962;52.538;13.266;2022-07-01T02:36:25;21.60;99.90
17687;DHT22;8962;52.538;13.266;2022-07-01T02:38:53;21.60;99.90
17687;DHT22;8962;52.538;13.266;2022-07-01T02:41:20;21.60;99.90
17687;DHT22;8962;52.538;13.266;2022-07-01T02:43:47;21.50;99.90
17687;DHT22;8962;52.538;13.266;2022-07-01T02:46:14;21.50;99.90
17687;DHT22;8962;52.538;13.266;2022-07-01T02:48:42;21.50;99.90
17687;DHT22;8962;52.538;13.266;2022-07-01T02:51:09;21.40;99.90
17687;DHT22;8962;52.538;13.266;2022-07-01T02:53:36;21.40;99.90
17687;DHT22;8962;52.538;13.266;2022-07-01T02:56:04;21.40;99.90
17687;DHT22;8962;52.538;13.266;2022-07-01T02:58:31;21.40;99.90
17687;DHT22;8962;52.538;13.266;2022-07-01T03:00:58;21.40;99.90
17687;DHT22;8962;52.538;13.266;2022-07-01T03:03:25;21.40;99.90
17687;DHT22;8962;52.538;13.266;2022-07-01T03:05:55;21.50;99.90
17687;DHT22;8962;52.538;13.266;2022-07-01T03:08:23;21.50;99.90
17687;DHT22;8962;52.538;13.266;2022-07-01T03:10:50;21.60;99.90
17687;DHT22;8962;52.538;13.266;2022-07-01T03:13:17;21.70;99.90
17687;DHT22;8962;52.538;13.266;2022-07-01T03:15:45;21.80;99.90
17687;DHT22;8962;52.538;13.266;2022-07-01T03:18:15;21.80;99.90
17687;DHT22;8962;52.538;13.266;2022-07-01T03:20:43;21.90;99.90
17687;DHT22;8962;52.538;13.266;2022-07-01T03:23:12;21.90;99.90
17687;DHT22;8962;52.538;13.266;2022-07-01T03:25:39;22.00;99.90
17687;DHT22;8962;52.538;13.266;2022-07-01T03:28:09;22.00;99.90
17687;DHT22;8962;52.538;13.266;2022-07-01T03:30:36;22.00;99.90
17687;DHT22;8962;52.538;13.266;2022-07-01T03:33:06;22.10;99.90
17687;DHT22;8962;52.538;13.266;2022-07-01T03:35:37;22.10;99.90
17687;DHT22;8962;52.538;13.266;2022-07-01T03:38:07;22.10;99.90
17687;DHT22;8962;52.538;13.266;2022-07-01T03:40:38;22.20;99.90
17687;DHT22;8962;52.538;13.266;2022-07-01T03:43:06;22.20;99.90
17687;DHT22;8962;52.538;13.266;2022-07-01T03:45:35;22.20;99.90
17687;DHT22;8962;52.538;13.266;2022-07-01T03:48:02;22.20;99.90
17687;DHT22;8962;52.538;13.266;2022-07-01T03:50:30;22.30;99.90
17687;DHT22;8962;52.538;13.266;2022-07-01T03:53:01;22.30;99.90
17687;DHT22;8962;52.538;13.266;2022-07-01T03:55:49;22.30;99.90
17687;DHT22;8962;52.538;13.266;2022-07-01T03:58:16;22.30;99.90
17687;DHT22;8962;52.538;13.266;2022-07-01T04:00:43;22.40;99.90
17687;DHT22;8962;52.538;13.266;2022-07-01T04:03:12;22.40;99.90
17687;DHT22;8962;52.538;13.266;2022-07-01T04:05:40;22.40;99.90
17687;DHT22;8962;52.538;13.266;2022-07-01T04:08:07;22.40;99.90
17687;DHT22;8962;52.538;13.266;2022-07-01T04:10:37;22.50;99.90
17687;DHT22;8962;52.538;13.266;2022-07-01T04:13:06;22.50;99.90
17687;DHT22;8962;52.538;13.266;2022-07-01T04:15:34;22.50;99.90
17687;DHT22;8962;52.538;13.266;2022-07-01T04:18:02;22.60;99.90
17687;DHT22;8962;52.538;13.266;2022-07-01T04:20:32;22.70;99.90
17687;DHT22;8962;52.538;13.266;2022-07-01T04:23:01;22.60;99.90
17687;DHT22;8962;52.538;13.266;2022-07-01T04:25:27;22.70;99.90
17687;DHT22;8962;52.538;13.266;2022-07-01T04:27:56;22.70;99.90
17687;DHT22;8962;52.538;13.266;2022-07-01T04:30:25;22.80;99.90
17687;DHT22;8962;52.538;13.266;2022-07-01T04:32:55;22.80;99.90
17687;DHT22;8962;52.538;13.266;2022-07-01T04:35:24;22.90;99.90
17687;DHT22;8962;52.538;13.266;2022-07-01T04:37:52;22.90;99.90
17687;DHT22;8962;52.538;13.266;2022-07-01T04:40:23;22.90;99.90
17687;DHT22;8962;52.538;13.266;2022-07-01T04:42:50;23.00;99.90
17687;DHT22;8962;52.538;13.266;2022-07-01T04:45:17;23.10;99.90
17687;DHT22;8962;52.538;13.266;2022-07-01T04:47:48;23.20;99.90
17687;DHT22;8962;52.538;13.266;2022-07-01T04:50:19;23.20;99.90
17687;DHT22;8962;52.538;13.266;2022-07-01T04:52:47;23.30;99.90
17687;DHT22;8962;52.538;13.266;2022-07-01T04:55:15;23.40;99.90
17687;DHT22;8962;52.538;13.266;2022-07-01T04:57:45;23.40;99.90
17687;DHT22;8962;52.538;13.266;2022-07-01T05:00:15;23.50;99.90
17687;DHT22;8962;52.538;13.266;2022-07-01T05:02:48;23.60;99.90
17687;DHT22;8962;52.538;13.266;2022-07-01T05:05:16;23.70;99.90
17687;DHT22;8962;52.538;13.266;2022-07-01T05:07:43;23.80;99.90
17687;DHT22;8962;52.538;13.266;2022-07-01T05:10:11;23.90;99.90
17687;DHT22;8962;52.538;13.266;2022-07-01T05:12:40;24.20;99.90
17687;DHT22;8962;52.538;13.266;2022-07-01T05:15:07;24.40;99.90
17687;DHT22;8962;52.538;13.266;2022-07-01T05:17:36;24.60;99.90
17687;DHT22;8962;52.538;13.266;2022-07-01T05:20:19;24.80;99.90
17687;DHT22;8962;52.538;13.266;2022-07-01T05:23:03;25.00;99.90
17687;DHT22;8962;52.538;13.266;2022-07-01T05:25:31;25.20;99.90
17687;DHT22;8962;52.538;13.266;2022-07-01T05:27:58;25.20;99.90
17687;DHT22;8962;52.538;13.266;2022-07-01T05:30:25;25.30;99.90
17687;DHT22;8962;52.538;13.266;2022-07-01T05:32:52;25.40;99.90
17687;DHT22;8962;52.538;13.266;2022-07-01T05:35:21;25.30;99.90
17687;DHT22;8962;52.538;13.266;2022-07-01T05:37:48;25.30;99.90
17687;DHT22;8962;52.538;13.266;2022-07-01T05:40:17;25.30;99.90
17687;DHT22;8962;52.538;13.266;2022-07-01T05:42:44;25.40;99.90
17687;DHT22;8962;52.538;13.266;2022-07-01T05:45:13;25.30;99.90
17687;DHT22;8962;52.538;13.266;2022-07-01T05:47:45;25.20;99.90
17687;DHT22;8962;52.538;13.266;2022-07-01T05:50:12;25.20;99.90
17687;DHT22;8962;52.538;13.266;2022-07-01T05:52:42;25.20;99.90
17687;DHT22;8962;52.538;13.266;2022-07-01T05:55:11;25.00;99.90
17687;DHT22;8962;52.538;13.266;2022-07-01T05:57:38;24.90;99.90
17687;DHT22;8962;52.538;13.266;2022-07-01T06:00:06;24.80;99.90
17687;DHT22;8962;52.538;13.266;2022-07-01T06:02:38;24.80;99.90
17687;DHT22;8962;52.538;13.266;2022-07-01T06:05:07;24.80;99.90
17687;DHT22;8962;52.538;13.266;2022-07-01T06:07:41;24.80;99.90
17687;DHT22;8962;52.538;13.266;2022-07-01T06:10:09;24.80;99.90
17687;DHT22;8962;52.538;13.266;2022-07-01T06:12:36;24.90;99.90
17687;DHT22;8962;52.538;13.266;2022-07-01T06:15:06;25.00;99.90
17687;DHT22;8962;52.538;13.266;2022-07-01T06:17:34;25.10;99.90
17687;DHT22;8962;52.538;13.266;2022-07-01T06:20:04;24.80;99.90
17687;DHT22;8962;52.538;13.266;2022-07-01T06:22:32;24.40;99.90
17687;DHT22;8962;52.538;13.266;2022-07-01T06:25:05;24.10;99.90
17687;DHT22;8962;52.538;13.266;2022-07-01T06:27:38;23.90;99.90
17687;DHT22;8962;52.538;13.266;2022-07-01T06:30:12;23.90;99.90
17687;DHT22;8962;52.538;13.266;2022-07-01T06:32:40;23.90;99.90
17687;DHT22;8962;52.538;13.266;2022-07-01T06:35:08;23.80;99.90
17687;DHT22;8962;52.538;13.266;2022-07-01T06:37:36;23.80;99.90
17687;DHT22;8962;52.538;13.266;2022-07-01T06:40:07;23.80;99.90
17687;DHT22;8962;52.538;13.266;2022-07-01T06:42:34;23.80;99.90
17687;DHT22;8962;52.538;13.266;2022-07-01T06:45:02;23.90;99.90
17687;DHT22;8962;52.538;13.266;2022-07-01T06:47:32;24.00;99.90
17687;DHT22;8962;52.538;13.266;2022-07-01T06:50:03;24.10;99.90
17687;DHT22;8962;52.538;13.266;2022-07-01T06:52:31;24.40;99.90
17687;DHT22;8962;52.538;13.266;2022-07-01T06:54:59;24.40;99.90
17687;DHT22;8962;52.538;13.266;2022-07-01T06:57:30;24.60;99.90
17687;DHT22;8962;52.538;13.266;2022-07-01T06:59:59;24.80;99.90
17687;DHT22;8962;52.538;13.266;2022-07-01T07:02:26;24.80;99.90
17687;DHT22;8962;52.538;13.266;2022-07-01T07:04:53;24.80;99.90
17687;DHT22;8962;52.538;13.266;2022-07-01T07:07:24;24.90;99.90
17687;DHT22;8962;52.538;13.266;2022-07-01T07:09:52;25.00;99.90
17687;DHT22;8962;52.538;13.266;2022-07-01T07:12:22;25.20;99.90
17687;DHT22;8962;52.538;13.266;2022-07-01T07:14:50;25.40;99.90
17687;DHT22;8962;52.538;13.266;2022-07-01T07:17:18;25.60;99.90
17687;DHT22;8962;52.538;13.266;2022-07-01T07:19:47;25.60;99.90
17687;DHT22;8962;52.538;13.266;2022-07-01T07:22:14;25.80;99.90
17687;DHT22;8962;52.538;13.266;2022-07-01T07:24:42;25.90;99.90
17687;DHT22;8962;52.538;13.266;2022-07-01T07:27:11;25.90;99.90
17687;DHT22;8962;52.538;13.266;2022-07-01T07:29:38;25.90;99.90
17687;DHT22;8962;52.538;13.266;2022-07-01T07:32:10;25.90;99.90
17687;DHT22;8962;52.538;13.266;2022-07-01T07:34:37;26.10;99.90
17687;DHT22;8962;52.538;13.266;2022-07-01T07:37:04;26.40;99.90
17687;DHT22;8962;52.538;13.266;2022-07-01T07:39:32;26.30;99.90
17687;DHT22;8962;52.538;13.266;2022-07-01T07:41:59;26.20;99.90
17687;DHT22;8962;52.538;13.266;2022-07-01T07:44:26;26.00;99.90
17687;DHT22;8962;52.538;13.266;2022-07-01T07:46:56;25.70;99.90
17687;DHT22;8962;52.538;13.266;2022-07-01T07:49:30;25.60;99.90
17687;DHT22;8962;52.538;13.266;2022-07-01T07:52:00;25.50;99.90
17687;DHT22;8962;52.538;13.266;2022-07-01T07:54:28;25.60;99.90
17687;DHT22;8962;52.538;13.266;2022-07-01T07:56:56;26.10;99.90
17687;DHT22;8962;52.538;13.266;2022-07-01T07:59:24;26.60;99.90
17687;DHT22;8962;52.538;13.266;2022-07-01T08:01:52;26.70;99.90
17687;DHT22;8962;52.538;13.266;2022-07-01T08:04:20;26.70;99.90
17687;DHT22;8962;52.538;13.266;2022-07-01T08:06:48;26.60;99.90
17687;DHT22;8962;52.538;13.266;2022-07-01T08:09:23;27.00;99.90
17687;DHT22;8962;52.538;13.266;2022-07-01T08:11:51;27.40;99.90
17687;DHT22;8962;52.538;13.266;2022-07-01T08:14:18;27.10;99.90
17687;DHT22;8962;52.538;13.266;2022-07-01T08:16:46;27.00;99.90
17687;DHT22;8962;52.538;13.266;2022-07-01T08:19:13;26.90;99.90
17687;DHT22;8962;52.538;13.266;2022-07-01T08:21:43;27.00;99.90
17687;DHT22;8962;52.538;13.266;2022-07-01T08:24:13;27.20;99.90
17687;DHT22;8962;52.538;13.266;2022-07-01T08:26:43;27.60;99.90
17687;DHT22;8962;52.538;13.266;2022-07-01T08:29:10;27.70;99.90
17687;DHT22;8962;52.538;13.266;2022-07-01T08:31:37;27.50;99.90
17687;DHT22;8962;52.538;13.266;2022-07-01T08:34:05;27.50;99.90
17687;DHT22;8962;52.538;13.266;2022-07-01T08:36:34;27.40;99.90
17687;DHT22;8962;52.538;13.266;2022-07-01T08:39:02;27.40;99.90
17687;DHT22;8962;52.538;13.266;2022-07-01T08:41:33;27.80;99.90
17687;DHT22;8962;52.538;13.266;2022-07-01T08:44:00;27.90;99.90
17687;DHT22;8962;52.538;13.266;2022-07-01T08:46:28;28.20;99.90
17687;DHT22;8962;52.538;13.266;2022-07-01T08:48:58;28.30;99.90
17687;DHT22;8962;52.538;13.266;2022-07-01T08:51:25;28.30;99.90
17687;DHT22;8962;52.538;13.266;2022-07-01T08:53:53;28.20;99.90
17687;DHT22;8962;52.538;13.266;2022-07-01T08:56:22;28.20;99.90
17687;DHT22;8962;52.538;13.266;2022-07-01T08:59:08;28.20;99.90
17687;DHT22;8962;52.538;13.266;2022-07-01T09:01:37;28.70;99.90
17687;DHT22;8962;52.538;13.266;2022-07-01T09:04:14;28.80;99.90
17687;DHT22;8962;52.538;13.266;2022-07-01T09:06:44;28.70;99.90
17687;DHT22;8962;52.538;13.266;2022-07-01T09:09:13;28.40;99.90
17687;DHT22;8962;52.538;13.266;2022-07-01T09:14:21;27.80;99.90
17687;DHT22;8962;52.538;13.266;2022-07-01T09:16:49;26.60;99.90
17687;DHT22;8962;52.538;13.266;2022-07-01T09:19:18;26.20;99.90
17687;DHT22;8962;52.538;13.266;2022-07-01T09:21:48;25.90;99.90
17687;DHT22;8962;52.538;13.266;2022-07-01T09:24:27;25.50;99.90
17687;DHT22;8962;52.538;13.266;2022-07-01T09:26:56;25.40;99.90
17687;DHT22;8962;52.538;13.266;2022-07-01T09:29:29;25.20;99.90
17687;DHT22;8962;52.538;13.266;2022-07-01T09:32:01;24.60;99.90
17687;DHT22;8962;52.538;13.266;2022-07-01T09:34:33;23.70;99.90
17687;DHT22;8962;52.538;13.266;2022-07-01T09:37:04;22.80;99.90
17687;DHT22;8962;52.538;13.266;2022-07-01T09:39:42;22.40;99.90
17687;DHT22;8962;52.538;13.266;2022-07-01T09:42:11;22.00;99.90
17687;DHT22;8962;52.538;13.266;2022-07-01T09:44:53;21.60;99.90
17687;DHT22;8962;52.538;13.266;2022-07-01T09:47:26;21.00;99.90
17687;DHT22;8962;52.538;13.266;2022-07-01T09:49:54;20.90;99.90
17687;DHT22;8962;52.538;13.266;2022-07-01T09:52:22;20.60;99.90
17687;DHT22;8962;52.538;13.266;2022-07-01T09:54:56;20.50;99.90
17687;DHT22;8962;52.538;13.266;2022-07-01T09:57:24;20.30;99.90
17687;DHT22;8962;52.538;13.266;2022-07-01T09:59:55;20.20;99.90
17687;DHT22;8962;52.538;13.266;2022-07-01T10:02:24;20.20;99.90
17687;DHT22;8962;52.538;13.266;2022-07-01T10:04:59;20.10;99.90
17687;DHT22;8962;52.538;13.266;2022-07-01T10:07:37;20.10;99.90
17687;DHT22;8962;52.538;13.266;2022-07-01T10:10:17;20.00;99.90
17687;DHT22;8962;52.538;13.266;2022-07-01T10:12:50;20.00;99.90
17687;DHT22;8962;52.538;13.266;2022-07-01T10:15:21;20.00;99.90
17687;DHT22;8962;52.538;13.266;2022-07-01T10:17:50;20.00;99.90
17687;DHT22;8962;52.538;13.266;2022-07-01T10:20:23;20.00;99.90
17687;DHT22;8962;52.538;13.266;2022-07-01T10:23:02;19.90;99.90
17687;DHT22;8962;52.538;13.266;2022-07-01T10:25:39;19.80;99.90
17687;DHT22;8962;52.538;13.266;2022-07-01T10:28:15;19.70;99.90
17687;DHT22;8962;52.538;13.266;2022-07-01T10:30:52;19.60;99.90
17687;DHT22;8962;52.538;13.266;2022-07-01T10:33:41;19.60;99.90
17687;DHT22;8962;52.538;13.266;2022-07-01T10:36:12;19.70;99.90
17687;DHT22;8962;52.538;13.266;2022-07-01T10:39:15;19.70;99.90
17687;DHT22;8962;52.538;13.266;2022-07-01T10:42:01;19.50;99.90
17687;DHT22;8962;52.538;13.266;2022-07-01T10:44:30;19.50;99.90
17687;DHT22;8962;52.538;13.266;2022-07-01T10:47:05;19.50;99.90
17687;DHT22;8962;52.538;13.266;2022-07-01T10:49:54;19.50;99.90
17687;DHT22;8962;52.538;13.266;2022-07-01T10:52:22;19.50;99.90
17687;DHT22;8962;52.538;13.266;2022-07-01T10:54:51;19.40;99.90
17687;DHT22;8962;52.538;13.266;2022-07-01T10:57:42;19.00;99.90
17687;DHT22;8962;52.538;13.266;2022-07-01T11:00:35;19.00;99.90
17687;DHT22;8962;52.538;13.266;2022-07-01T11:03:10;18.90;99.90
17687;DHT22;8962;52.538;13.266;2022-07-01T11:05:40;18.80;99.90
17687;DHT22;8962;52.538;13.266;2022-07-01T11:08:08;18.50;99.90
17687;DHT22;8962;52.538;13.266;2022-07-01T11:10:35;18.40;99.90
17687;DHT22;8962;52.538;13.266;2022-07-01T11:13:03;18.30;99.90
17687;DHT22;8962;52.538;13.266;2022-07-01T11:15:31;18.20;99.90
17687;DHT22;8962;52.538;13.266;2022-07-01T11:17:59;18.00;99.90
17687;DHT22;8962;52.538;13.266;2022-07-01T11:20:30;17.80;99.90
17687;DHT22;8962;52.538;13.266;2022-07-01T11:22:58;17.80;99.90
17687;DHT22;8962;52.538;13.266;2022-07-01T11:25:26;17.80;99.90
17687;DHT22;8962;52.538;13.266;2022-07-01T11:27:55;17.70;99.90
17687;DHT22;8962;52.538;13.266;2022-07-01T11:30:23;17.60;99.90
17687;DHT22;8962;52.538;13.266;2022-07-01T11:32:51;17.50;99.90
17687;DHT22;8962;52.538;13.266;2022-07-01T11:35:20;17.40;99.90
17687;DHT22;8962;52.538;13.266;2022-07-01T11:38:08;17.30;99.90
17687;DHT22;8962;52.538;13.266;2022-07-01T11:40:54;17.30;99.90
17687;DHT22;8962;52.538;13.266;2022-07-01T11:43:23;17.30;99.90
17687;DHT22;8962;52.538;13.266;2022-07-01T11:45:52;17.20;99.90
17687;DHT22;8962;52.538;13.266;2022-07-01T11:48:38;17.20;99.90
17687;DHT22;8962;52.538;13.266;2022-07-01T11:51:09;17.30;99.90
17687;DHT22;8962;52.538;13.266;2022-07-01T11:53:40;17.30;99.90
17687;DHT22;8962;52.538;13.266;2022-07-01T11:56:11;17.30;99.90
17687;DHT22;8962;52.538;13.266;2022-07-01T11:58:49;17.80;99.90
17687;DHT22;8962;52.538;13.266;2022-07-01T12:01:21;17.80;99.90
17687;DHT22;8962;52.538;13.266;2022-07-01T12:04:00;17.70;99.90
17687;DHT22;8962;52.538;13.266;2022-07-01T12:06:29;17.60;99.90
17687;DHT22;8962;52.538;13.266;2022-07-01T12:09:12;17.60;99.90
17687;DHT22;8962;52.538;13.266;2022-07-01T12:11:43;17.70;99.90
17687;DHT22;8962;52.538;13.266;2022-07-01T12:14:18;17.70;99.90
17687;DHT22;8962;52.538;13.266;2022-07-01T12:16:50;18.00;99.90
17687;DHT22;8962;52.538;13.266;2022-07-01T12:19:25;18.40;99.90
17687;DHT22;8962;52.538;13.266;2022-07-01T12:21:58;18.80;99.90
17687;DHT22;8962;52.538;13.266;2022-07-01T12:24:27;19.00;99.90
17687;DHT22;8962;52.538;13.266;2022-07-01T12:27:03;18.90;99.90
17687;DHT22;8962;52.538;13.266;2022-07-01T12:29:47;19.20;99.90
17687;DHT22;8962;52.538;13.266;2022-07-01T12:32:20;19.20;99.90
17687;DHT22;8962;52.538;13.266;2022-07-01T12:34:50;19.20;99.90
17687;DHT22;8962;52.538;13.266;2022-07-01T12:37:19;18.90;99.90
17687;DHT22;8962;52.538;13.266;2022-07-01T12:39:51;19.00;99.90
17687;DHT22;8962;52.538;13.266;2022-07-01T12:42:23;19.00;99.90
17687;DHT22;8962;52.538;13.266;2022-07-01T12:44:52;19.00;99.90
17687;DHT22;8962;52.538;13.266;2022-07-01T12:47:25;19.00;99.90
17687;DHT22;8962;52.538;13.266;2022-07-01T12:50:24;18.90;99.90
17687;DHT22;8962;52.538;13.266;2022-07-01T12:52:59;19.00;99.90
17687;DHT22;8962;52.538;13.266;2022-07-01T12:55:30;19.30;99.90
17687;DHT22;8962;52.538;13.266;2022-07-01T12:57:59;19.20;99.90
17687;DHT22;8962;52.538;13.266;2022-07-01T13:00:27;19.10;99.90
17687;DHT22;8962;52.538;13.266;2022-07-01T13:02:57;19.10;99.90
17687;DHT22;8962;52.538;13.266;2022-07-01T13:05:27;19.10;99.90
17687;DHT22;8962;52.538;13.266;2022-07-01T13:07:54;19.10;99.90
17687;DHT22;8962;52.538;13.266;2022-07-01T13:10:21;19.20;99.90
17687;DHT22;8962;52.538;13.266;2022-07-01T13:12:55;18.90;99.90
17687;DHT22;8962;52.538;13.266;2022-07-01T13:15:22;18.70;99.90
17687;DHT22;8962;52.538;13.266;2022-07-01T13:17:50;18.70;99.90
17687;DHT22;8962;52.538;13.266;2022-07-01T13:20:18;18.60;99.90
17687;DHT22;8962;52.538;13.266;2022-07-01T13:22:48;18.40;99.90
17687;DHT22;8962;52.538;13.266;2022-07-01T13:25:17;18.30;99.90
17687;DHT22;8962;52.538;13.266;2022-07-01T13:27:45;18.30;99.90
17687;DHT22;8962;52.538;13.266;2022-07-01T13:30:15;18.30;99.90
17687;DHT22;8962;52.538;13.266;2022-07-01T13:32:42;18.40;99.90
17687;DHT22;8962;52.538;13.266;2022-07-01T13:35:12;18.50;99.90
17687;DHT22;8962;52.538;13.266;2022-07-01T13:37:41;18.40;99.90
17687;DHT22;8962;52.538;13.266;2022-07-01T13:40:09;18.30;99.90
17687;DHT22;8962;52.538;13.266;2022-07-01T13:42:37;18.30;99.90
17687;DHT22;8962;52.538;13.266;2022-07-01T13:45:05;18.30;99.90
17687;DHT22;8962;52.538;13.266;2022-07-01T13:47:33;18.20;99.90
17687;DHT22;8962;52.538;13.266;2022-07-01T13:50:02;18.30;99.90
17687;DHT22;8962;52.538;13.266;2022-07-01T13:52:30;18.30;99.90
17687;DHT22;8962;52.538;13.266;2022-07-01T13:54:57;18.30;99.90
17687;DHT22;8962;52.538;13.266;2022-07-01T13:59:56;18.10;99.90
17687;DHT22;8962;52.538;13.266;2022-07-01T14:02:24;18.10;99.90
17687;DHT22;8962;52.538;13.266;2022-07-01T14:04:52;18.00;99.90
17687;DHT22;8962;52.538;13.266;2022-07-01T14:07:20;18.00;99.90
17687;DHT22;8962;52.538;13.266;2022-07-01T14:09:47;17.90;99.90
17687;DHT22;8962;52.538;13.266;2022-07-01T14:12:14;17.90;99.90
17687;DHT22;8962;52.538;13.266;2022-07-01T14:14:43;17.90;99.90
17687;DHT22;8962;52.538;13.266;2022-07-01T14:17:10;18.00;99.90
17687;DHT22;8962;52.538;13.266;2022-07-01T14:19:37;18.00;99.90
17687;DHT22;8962;52.538;13.266;2022-07-01T14:22:08;18.00;99.90
17687;DHT22;8962;52.538;13.266;2022-07-01T14:24:35;18.00;99.90
17687;DHT22;8962;52.538;13.266;2022-07-01T14:27:03;18.00;99.90
17687;DHT22;8962;52.538;13.266;2022-07-01T14:29:31;17.90;99.90
17687;DHT22;8962;52.538;13.266;2022-07-01T14:32:00;17.90;99.90
17687;DHT22;8962;52.538;13.266;2022-07-01T14:34:27;17.90;99.90
17687;DHT22;8962;52.538;13.266;2022-07-01T14:36:54;17.80;99.90
17687;DHT22;8962;52.538;13.266;2022-07-01T14:39:25;17.80;99.90
17687;DHT22;8962;52.538;13.266;2022-07-01T14:41:53;17.70;99.90
17687;DHT22;8962;52.538;13.266;2022-07-01T14:44:21;17.60;99.90
17687;DHT22;8962;52.538;13.266;2022-07-01T14:46:48;17.40;99.90
17687;DHT22;8962;52.538;13.266;2022-07-01T14:49:19;17.30;99.90
17687;DHT22;8962;52.538;13.266;2022-07-01T14:51:51;17.20;99.90
17687;DHT22;8962;52.538;13.266;2022-07-01T14:54:20;17.20;99.90
17687;DHT22;8962;52.538;13.266;2022-07-01T14:56:48;17.10;99.90
17687;DHT22;8962;52.538;13.266;2022-07-01T14:59:16;17.10;99.90
17687;DHT22;8962;52.538;13.266;2022-07-01T15:01:44;17.20;99.90
17687;DHT22;8962;52.538;13.266;2022-07-01T15:04:13;17.20;99.90
17687;DHT22;8962;52.538;13.266;2022-07-01T15:06:40;17.10;99.90
17687;DHT22;8962;52.538;13.266;2022-07-01T15:09:10;17.10;99.90
17687;DHT22;8962;52.538;13.266;2022-07-01T15:11:37;17.00;99.90
17687;DHT22;8962;52.538;13.266;2022-07-01T15:14:06;17.10;99.90
17687;DHT22;8962;52.538;13.266;2022-07-01T15:16:35;17.10;99.90
17687;DHT22;8962;52.538;13.266;2022-07-01T15:19:02;17.00;99.90
17687;DHT22;8962;52.538;13.266;2022-07-01T15:21:30;17.00;99.90
17687;DHT22;8962;52.538;13.266;2022-07-01T15:23:57;17.00;99.90
17687;DHT22;8962;52.538;13.266;2022-07-01T15:26:27;17.00;99.90
17687;DHT22;8962;52.538;13.266;2022-07-01T15:28:54;17.00;99.90
17687;DHT22;8962;52.538;13.266;2022-07-01T15:31:22;17.10;99.90
17687;DHT22;8962;52.538;13.266;2022-07-01T15:33:50;17.10;99.90
17687;DHT22;8962;52.538;13.266;2022-07-01T15:36:18;17.10;99.90
17687;DHT22;8962;52.538;13.266;2022-07-01T15:38:47;17.10;99.90
17687;DHT22;8962;52.538;13.266;2022-07-01T15:41:15;17.10;99.90
17687;DHT22;8962;52.538;13.266;2022-07-01T15:43:44;17.20;99.90
17687;DHT22;8962;52.538;13.266;2022-07-01T15:46:11;17.20;99.90
17687;DHT22;8962;52.538;13.266;2022-07-01T15:48:40;17.30;99.90
17687;DHT22;8962;52.538;13.266;2022-07-01T15:51:07;17.30;99.90
17687;DHT22;8962;52.538;13.266;2022-07-01T15:53:34;17.30;99.90